createdAt,value
2024-02-21T00:02:12.419Z,6.97
2024-02-21T00:04:41.740Z,8.13
2024-02-21T00:07:09.820Z,7.15
2024-02-21T00:09:38.004Z,7.03
2024-02-21T00:12:06.508Z,6.82
2024-02-21T00:14:34.371Z,6.00
2024-02-21T00:17:02.247Z,6.40
2024-02-21T00:19:30.218Z,6.43
2024-02-21T00:21:59.481Z,5.85
2024-02-21T00:24:27.352Z,6.50
2024-02-21T00:26:56.083Z,6.13
2024-02-21T00:29:23.952Z,5.90
2024-02-21T00:31:51.970Z,7.25
2024-02-21T00:34:20.024Z,6.35
2024-02-21T00:36:47.962Z,6.75
2024-02-21T00:39:17.190Z,7.80
2024-02-21T00:41:45.124Z,8.23
2024-02-21T00:44:13.008Z,7.25
2024-02-21T00:46:40.974Z,6.47
2024-02-21T00:49:09.209Z,6.88
2024-02-21T00:51:37.077Z,7.55
2024-02-21T00:54:05.050Z,7.75
2024-02-21T00:56:34.254Z,7.05
2024-02-21T00:59:02.276Z,7.17
2024-02-21T01:01:30.309Z,7.20
2024-02-21T01:03:58.233Z,6.93
2024-02-21T01:06:26.210Z,7.68
2024-02-21T01:08:54.105Z,7.20
2024-02-21T01:11:21.997Z,6.95
2024-02-21T01:13:51.393Z,7.00
2024-02-21T01:16:19.358Z,6.68
2024-02-21T01:18:47.386Z,6.63
2024-02-21T01:21:15.399Z,6.88
2024-02-21T01:23:43.244Z,7.43
2024-02-21T01:26:14.168Z,6.78
2024-02-21T01:28:42.902Z,7.47
2024-02-21T01:31:12.411Z,6.60
2024-02-21T01:33:40.421Z,6.72
2024-02-21T01:36:09.127Z,7.03
2024-02-21T01:38:37.336Z,8.35
2024-02-21T01:41:05.662Z,7.75
2024-02-21T01:43:33.680Z,8.45
2024-02-21T01:46:01.778Z,7.55
2024-02-21T01:48:32.050Z,7.25
2024-02-21T01:51:00.102Z,8.48
2024-02-21T01:53:32.235Z,8.88
2024-02-21T01:56:00.352Z,9.05
2024-02-21T01:58:31.221Z,8.55
2024-02-21T02:00:59.525Z,8.77
2024-02-21T02:03:28.039Z,9.68
2024-02-21T02:05:59.820Z,8.43
2024-02-21T02:08:28.240Z,9.30
2024-02-21T02:10:56.340Z,8.55
2024-02-21T02:13:24.351Z,9.43
2024-02-21T02:15:52.643Z,8.60
2024-02-21T02:18:21.836Z,7.95
2024-02-21T02:20:49.953Z,8.45
2024-02-21T02:23:25.840Z,9.65
2024-02-21T02:25:54.370Z,8.60
2024-02-21T02:28:23.332Z,7.80
2024-02-21T02:30:51.539Z,7.78
2024-02-21T02:33:19.809Z,8.25
2024-02-21T02:35:48.198Z,7.40
2024-02-21T02:38:16.426Z,7.25
2024-02-21T02:40:45.823Z,6.93
2024-02-21T02:43:13.898Z,6.82
2024-02-21T02:45:41.800Z,6.80
2024-02-21T02:48:10.321Z,7.40
2024-02-21T02:50:38.245Z,6.13
2024-02-21T02:53:06.287Z,6.43
2024-02-21T02:55:34.239Z,6.07
2024-02-21T02:58:03.696Z,5.10
2024-02-21T03:00:31.785Z,4.82
2024-02-21T03:02:59.999Z,5.72
2024-02-21T03:05:28.070Z,4.88
2024-02-21T03:07:56.533Z,4.40
2024-02-21T03:10:24.426Z,5.03
2024-02-21T03:12:54.107Z,4.47
2024-02-21T03:15:23.369Z,4.75
2024-02-21T03:17:51.234Z,4.55
2024-02-21T03:20:20.973Z,5.00
2024-02-21T03:22:49.007Z,4.28
2024-02-21T03:25:17.066Z,5.28
2024-02-21T03:27:44.973Z,4.85
2024-02-21T03:30:13.597Z,5.53
2024-02-21T03:32:42.871Z,4.82
2024-02-21T03:35:10.808Z,4.95
2024-02-21T03:37:38.741Z,5.68
2024-02-21T03:40:10.195Z,5.65
2024-02-21T03:42:38.050Z,5.65
2024-02-21T03:45:06.608Z,5.63
2024-02-21T03:47:34.504Z,5.20
2024-02-21T03:50:04.003Z,5.13
2024-02-21T03:52:32.055Z,4.40
2024-02-21T03:54:59.921Z,4.53
2024-02-21T03:57:27.848Z,4.72
2024-02-21T03:59:55.777Z,5.28
2024-02-21T04:02:23.729Z,4.97
2024-02-21T04:04:51.652Z,4.20
2024-02-21T04:07:20.898Z,5.10
2024-02-21T04:09:48.733Z,5.03
2024-02-21T04:12:16.573Z,5.05
2024-02-21T04:14:47.313Z,5.28
2024-02-21T04:17:15.457Z,4.70
2024-02-21T04:19:43.371Z,5.25
2024-02-21T04:22:11.245Z,4.90
2024-02-21T04:24:40.480Z,4.88
2024-02-21T04:27:08.302Z,5.40
2024-02-21T04:29:36.360Z,4.97
2024-02-21T04:32:04.649Z,5.13
2024-02-21T04:34:32.953Z,5.55
2024-02-21T04:37:00.895Z,5.55
2024-02-21T04:39:28.739Z,4.90
2024-02-21T04:41:57.930Z,5.32
2024-02-21T04:44:25.747Z,4.90
2024-02-21T04:46:53.677Z,4.38
2024-02-21T04:49:21.697Z,4.90
2024-02-21T04:51:49.673Z,5.15
2024-02-21T04:54:17.526Z,4.05
2024-02-21T04:56:45.457Z,4.55
2024-02-21T04:59:14.714Z,4.78
2024-02-21T05:01:42.629Z,4.10
2024-02-21T05:04:10.556Z,4.22
2024-02-21T05:06:40.785Z,4.55
2024-02-21T05:09:09.765Z,4.18
2024-02-21T05:11:38.015Z,4.57
2024-02-21T05:14:06.452Z,4.15
2024-02-21T05:16:36.004Z,4.20
2024-02-21T05:19:05.588Z,3.88
2024-02-21T05:21:33.767Z,4.07
2024-02-21T05:24:02.049Z,4.00
2024-02-21T05:26:30.206Z,3.83
2024-02-21T05:28:58.505Z,4.03
2024-02-21T05:31:26.436Z,3.53
2024-02-21T05:33:55.691Z,3.80
2024-02-21T05:36:23.606Z,3.40
2024-02-21T05:38:51.423Z,5.03
2024-02-21T05:41:19.308Z,5.57
2024-02-21T05:43:47.155Z,3.47
2024-02-21T05:46:15.063Z,3.70
2024-02-21T05:48:43.059Z,3.25
2024-02-21T05:51:12.373Z,3.38
2024-02-21T05:53:41.768Z,3.17
2024-02-21T05:56:11.545Z,3.20
2024-02-21T05:58:39.513Z,3.55
2024-02-21T06:01:07.996Z,3.83
2024-02-21T06:03:36.154Z,3.78
2024-02-21T06:06:06.009Z,4.15
2024-02-21T06:08:35.345Z,3.67
2024-02-21T06:11:03.326Z,4.45
2024-02-21T06:13:31.328Z,3.67
2024-02-21T06:15:59.196Z,4.60
2024-02-21T06:18:27.063Z,3.95
2024-02-21T06:20:54.932Z,4.38
2024-02-21T06:23:22.779Z,4.65
2024-02-21T06:25:52.191Z,5.18
2024-02-21T06:28:20.099Z,3.15
2024-02-21T06:30:48.137Z,4.40
2024-02-21T06:33:16.110Z,4.25
2024-02-21T06:35:44.156Z,4.15
2024-02-21T06:38:12.202Z,4.22
2024-02-21T06:40:41.424Z,4.72
2024-02-21T06:43:10.732Z,4.47
2024-02-21T06:45:38.550Z,4.50
2024-02-21T06:48:06.795Z,5.00
2024-02-21T06:50:34.698Z,5.80
2024-02-21T06:53:02.623Z,5.10
2024-02-21T06:55:30.523Z,5.28
2024-02-21T06:57:58.369Z,5.40
2024-02-21T07:00:27.836Z,5.00
2024-02-21T07:02:55.868Z,5.43
2024-02-21T07:05:24.576Z,6.13
2024-02-21T07:07:52.703Z,5.18
2024-02-21T07:10:20.688Z,5.80
2024-02-21T07:12:49.733Z,5.63
2024-02-21T07:15:17.657Z,5.82
2024-02-21T07:17:47.177Z,6.70
2024-02-21T07:20:15.140Z,6.70
2024-02-21T07:22:43.066Z,5.80
2024-02-21T07:25:11.231Z,6.85
2024-02-21T07:27:39.189Z,6.60
2024-02-21T07:30:08.525Z,6.75
2024-02-21T07:32:36.374Z,8.20
2024-02-21T07:35:06.863Z,7.30
2024-02-21T07:37:34.883Z,7.00
2024-02-21T07:40:02.771Z,8.13
2024-02-21T07:42:30.598Z,7.68
2024-02-21T07:44:58.444Z,7.63
2024-02-21T07:47:26.295Z,7.80
2024-02-21T07:49:54.325Z,7.45
2024-02-21T07:52:23.582Z,8.45
2024-02-21T07:54:51.432Z,8.73
2024-02-21T07:57:19.297Z,8.50
2024-02-21T07:59:48.368Z,7.60
2024-02-21T08:02:16.525Z,8.35
2024-02-21T08:04:44.653Z,9.32
2024-02-21T08:07:12.528Z,9.20
2024-02-21T08:09:43.168Z,8.93
2024-02-21T08:12:11.101Z,9.88
2024-02-21T08:14:38.993Z,8.75
2024-02-21T08:17:07.015Z,9.73
2024-02-21T08:19:35.104Z,9.07
2024-02-21T08:22:04.437Z,8.80
2024-02-21T08:24:32.345Z,9.27
2024-02-21T08:27:01.563Z,9.25
2024-02-21T08:29:29.449Z,10.53
2024-02-21T08:31:57.318Z,9.45
2024-02-21T08:34:25.315Z,10.48
2024-02-21T08:36:52.239Z,9.63
2024-02-21T08:39:20.150Z,9.13
2024-02-21T08:41:56.435Z,10.90
2024-02-21T08:44:28.515Z,10.88
2024-02-21T08:46:57.520Z,11.43
2024-02-21T08:49:32.841Z,11.83
2024-02-21T08:52:02.599Z,11.40
2024-02-21T08:54:30.817Z,11.75
2024-02-21T08:56:58.743Z,11.68
2024-02-21T08:59:28.867Z,11.55
2024-02-21T09:04:24.706Z,11.23
2024-02-21T09:06:53.809Z,11.50
2024-02-21T09:09:22.143Z,12.30
2024-02-21T09:11:50.046Z,12.07
2024-02-21T09:14:17.969Z,12.93
2024-02-21T09:16:47.276Z,14.05
2024-02-21T09:19:15.286Z,11.80
2024-02-21T09:21:43.158Z,12.48
2024-02-21T09:24:11.031Z,13.25
2024-02-21T09:26:39.124Z,13.02
2024-02-21T09:29:07.164Z,13.40
2024-02-21T09:31:35.225Z,13.25
2024-02-21T09:34:04.797Z,13.93
2024-02-21T09:36:32.768Z,13.88
2024-02-21T09:39:00.722Z,13.38
2024-02-21T09:41:29.899Z,13.32
2024-02-21T09:43:58.847Z,12.95
2024-02-21T09:46:38.698Z,14.02
2024-02-21T09:49:16.291Z,14.40
2024-02-21T09:51:45.993Z,13.93
2024-02-21T09:54:16.848Z,14.02
2024-02-21T09:56:47.991Z,14.60
2024-02-21T09:59:17.863Z,14.20
2024-02-21T10:01:48.169Z,14.25
2024-02-21T10:04:17.735Z,15.17
2024-02-21T10:06:45.840Z,14.15
2024-02-21T10:09:24.101Z,14.38
2024-02-21T10:11:52.901Z,13.77
2024-02-21T10:14:21.003Z,14.35
2024-02-21T10:16:50.176Z,14.68
2024-02-21T10:19:23.239Z,10.63
2024-02-21T10:22:04.891Z,15.18
2024-02-21T10:24:33.432Z,16.35
2024-02-21T10:27:04.613Z,16.27
2024-02-21T10:29:32.764Z,14.45
2024-02-21T10:32:12.146Z,15.80
2024-02-21T10:34:43.739Z,14.85
2024-02-21T10:37:13.099Z,13.57
2024-02-21T10:39:42.352Z,13.52
2024-02-21T10:42:14.049Z,14.73
2024-02-21T10:44:43.603Z,14.23
2024-02-21T10:47:14.380Z,14.20
2024-02-21T10:49:48.934Z,15.75
2024-02-21T10:52:25.428Z,14.07
2024-02-21T10:55:06.547Z,14.90
2024-02-21T10:57:34.663Z,13.70
2024-02-21T11:00:04.953Z,15.02
2024-02-21T11:02:33.194Z,14.32
2024-02-21T11:05:05.932Z,15.98
2024-02-21T11:07:34.818Z,17.42
2024-02-21T11:10:02.873Z,16.90
2024-02-21T11:12:30.765Z,20.35
2024-02-21T11:15:07.183Z,16.60
2024-02-21T11:17:44.281Z,18.10
2024-02-21T11:20:17.261Z,18.08
2024-02-21T11:22:45.539Z,19.38
2024-02-21T11:25:13.541Z,17.02
2024-02-21T11:27:47.656Z,18.40
2024-02-21T11:30:17.445Z,19.55
2024-02-21T11:32:45.450Z,20.35
2024-02-21T11:35:22.977Z,17.33
2024-02-21T11:37:50.994Z,18.02
2024-02-21T11:40:19.541Z,17.25
2024-02-21T11:42:47.489Z,16.17
2024-02-21T11:45:18.797Z,17.52
2024-02-21T11:47:47.972Z,18.63
2024-02-21T11:50:17.812Z,15.75
2024-02-21T11:52:50.710Z,20.65
2024-02-21T11:55:18.585Z,17.02
2024-02-21T11:57:46.792Z,17.52
2024-02-21T12:00:17.103Z,17.17
2024-02-21T12:02:45.237Z,13.32
2024-02-21T12:05:13.402Z,17.55
2024-02-21T12:07:42.137Z,19.08
2024-02-21T12:10:12.277Z,16.35
2024-02-21T12:12:40.451Z,19.05
2024-02-21T12:15:09.608Z,14.30
2024-02-21T12:17:38.149Z,17.13
2024-02-21T12:20:10.346Z,16.67
2024-02-21T12:22:39.367Z,18.92
2024-02-21T12:25:20.621Z,22.20
2024-02-21T12:27:50.274Z,16.83
2024-02-21T12:30:18.744Z,20.20
2024-02-21T12:32:46.714Z,22.08
2024-02-21T12:35:14.742Z,23.38
2024-02-21T12:37:42.919Z,18.08
2024-02-21T12:40:14.514Z,14.57
2024-02-21T12:42:44.520Z,23.98
2024-02-21T12:45:12.548Z,25.33
2024-02-21T12:47:41.225Z,24.35
2024-02-21T12:50:10.041Z,17.33
2024-02-21T12:52:38.234Z,15.98
2024-02-21T12:55:07.402Z,17.67
2024-02-21T12:57:35.213Z,17.15
2024-02-21T13:00:05.407Z,27.20
2024-02-21T13:05:01.689Z,16.50
2024-02-21T13:07:29.821Z,20.15
2024-02-21T13:09:57.672Z,27.10
2024-02-21T13:12:27.150Z,25.27
2024-02-21T13:14:55.214Z,19.85
2024-02-21T13:17:24.585Z,28.33
2024-02-21T13:19:52.643Z,18.77
2024-02-21T13:22:23.385Z,27.27
2024-02-21T13:24:51.960Z,23.85
2024-02-21T13:27:20.741Z,23.10
2024-02-21T13:29:48.663Z,25.45
2024-02-21T13:32:17.017Z,22.70
2024-02-21T13:34:46.752Z,39.20
2024-02-21T13:37:16.024Z,26.92
2024-02-21T13:39:43.868Z,29.10
2024-02-21T13:42:11.929Z,26.33
2024-02-21T13:44:39.752Z,19.65
2024-02-21T13:47:09.379Z,33.67
2024-02-21T13:49:37.515Z,23.25
2024-02-21T13:52:07.155Z,17.13
2024-02-21T13:54:35.223Z,35.05
2024-02-21T13:57:03.482Z,29.42
2024-02-21T13:59:31.313Z,23.75
2024-02-21T14:02:00.233Z,26.10
2024-02-21T14:04:28.561Z,39.33
2024-02-21T14:06:56.506Z,18.92
2024-02-21T14:09:25.771Z,41.80
2024-02-21T14:11:53.645Z,32.80
2024-02-21T14:14:21.545Z,26.58
2024-02-21T14:16:49.877Z,19.20
2024-02-21T14:19:18.601Z,22.92
2024-02-21T14:21:46.927Z,32.90
2024-02-21T14:24:14.810Z,33.88
2024-02-21T14:26:44.027Z,31.65
2024-02-21T14:29:13.944Z,42.50
2024-02-21T14:31:41.895Z,34.25
2024-02-21T14:34:10.117Z,21.70
2024-02-21T14:36:38.078Z,27.27
2024-02-21T14:39:06.218Z,25.05
2024-02-21T14:41:36.102Z,23.00
2024-02-21T14:44:05.641Z,25.67
2024-02-21T14:46:34.096Z,13.10
2024-02-21T14:49:02.337Z,22.15
2024-02-21T14:51:30.272Z,17.23
2024-02-21T14:53:58.114Z,20.70
2024-02-21T14:56:26.025Z,23.83
2024-02-21T14:58:56.209Z,17.77
2024-02-21T15:01:27.081Z,16.52
2024-02-21T15:03:55.037Z,14.55
2024-02-21T15:06:23.134Z,26.80
2024-02-21T15:08:51.228Z,23.40
2024-02-21T15:11:20.113Z,19.02
2024-02-21T15:13:49.029Z,22.60
2024-02-21T15:16:17.421Z,25.77
2024-02-21T15:18:46.620Z,27.65
2024-02-21T15:21:16.397Z,28.05
2024-02-21T15:23:44.927Z,27.13
2024-02-21T15:26:12.868Z,22.33
2024-02-21T15:28:40.916Z,25.42
2024-02-21T15:31:08.838Z,22.45
2024-02-21T15:33:39.268Z,20.33
2024-02-21T15:36:09.733Z,20.70
2024-02-21T15:38:37.689Z,13.10
2024-02-21T15:41:05.964Z,17.65
2024-02-21T15:43:33.961Z,14.55
2024-02-21T15:46:01.808Z,15.98
2024-02-21T15:48:29.727Z,13.35
2024-02-21T15:50:57.606Z,17.13
2024-02-21T15:53:26.813Z,18.80
2024-02-21T15:55:54.791Z,13.18
2024-02-21T15:58:23.984Z,12.65
2024-02-21T16:00:51.954Z,11.02
2024-02-21T16:03:19.828Z,13.27
2024-02-21T16:05:47.785Z,15.73
2024-02-21T16:08:19.310Z,19.67
2024-02-21T16:10:48.674Z,14.13
2024-02-21T16:13:16.927Z,13.13
2024-02-21T16:15:46.062Z,14.95
2024-02-21T16:18:14.011Z,18.52
2024-02-21T16:20:42.015Z,19.83
2024-02-21T16:23:10.031Z,15.65
2024-02-21T16:25:38.029Z,24.98
2024-02-21T16:28:08.695Z,15.90
2024-02-21T16:30:36.555Z,12.50
2024-02-21T16:33:05.227Z,14.32
2024-02-21T16:35:33.187Z,16.88
2024-02-21T16:38:03.561Z,15.90
2024-02-21T16:40:31.492Z,28.98
2024-02-21T16:43:00.019Z,28.40
2024-02-21T16:45:29.259Z,16.27
2024-02-21T16:47:57.147Z,21.13
2024-02-21T16:50:25.356Z,23.38
2024-02-21T16:52:53.913Z,14.48
2024-02-21T16:55:23.035Z,17.85
2024-02-21T16:57:50.945Z,13.50
2024-02-21T17:00:21.603Z,19.95
2024-02-21T17:02:58.825Z,9.65
2024-02-21T17:05:27.825Z,19.17
2024-02-21T17:07:56.062Z,10.13
2024-02-21T17:10:24.158Z,11.48
2024-02-21T17:12:52.020Z,11.50
2024-02-21T17:15:19.856Z,11.90
2024-02-21T17:17:47.712Z,14.63
2024-02-21T17:20:17.966Z,13.18
2024-02-21T17:25:14.294Z,15.68
2024-02-21T17:27:42.112Z,14.93
2024-02-21T17:30:10.651Z,18.60
2024-02-21T17:32:38.502Z,15.20
2024-02-21T17:35:07.501Z,24.25
2024-02-21T17:37:36.845Z,21.92
2024-02-21T17:40:06.718Z,22.00
2024-02-21T17:42:34.603Z,16.00
2024-02-21T17:45:02.428Z,21.30
2024-02-21T17:47:31.933Z,22.45
2024-02-21T17:50:00.204Z,16.48
2024-02-21T17:52:28.516Z,15.25
2024-02-21T17:54:58.736Z,16.50
2024-02-21T17:57:27.274Z,10.55
2024-02-21T17:59:55.184Z,13.85
2024-02-21T18:02:25.158Z,11.45
2024-02-21T18:04:53.770Z,13.68
2024-02-21T18:07:22.128Z,12.23
2024-02-21T18:09:51.854Z,15.80
2024-02-21T18:12:21.223Z,13.20
2024-02-21T18:14:49.070Z,10.93
2024-02-21T18:17:17.181Z,13.82
2024-02-21T18:19:45.234Z,12.90
2024-02-21T18:22:13.179Z,12.30
2024-02-21T18:24:41.021Z,11.52
2024-02-21T18:27:08.848Z,12.13
2024-02-21T18:29:40.461Z,15.50
2024-02-21T18:32:10.460Z,15.57
2024-02-21T18:34:38.880Z,13.57
2024-02-21T18:37:07.126Z,11.82
2024-02-21T18:39:35.211Z,10.98
2024-02-21T18:42:03.653Z,11.40
2024-02-21T18:44:31.514Z,13.75
2024-02-21T18:47:00.898Z,13.38
2024-02-21T18:49:28.844Z,11.13
2024-02-21T18:51:56.738Z,13.95
2024-02-21T18:54:24.556Z,11.55
2024-02-21T18:56:52.442Z,11.57
2024-02-21T18:59:20.418Z,10.98
2024-02-21T19:01:48.334Z,11.63
2024-02-21T19:04:17.589Z,12.93
2024-02-21T19:06:45.544Z,13.77
2024-02-21T19:09:13.408Z,12.75
2024-02-21T19:11:41.301Z,12.55
2024-02-21T19:14:09.296Z,11.10
2024-02-21T19:16:38.247Z,11.25
2024-02-21T19:19:06.170Z,16.42
2024-02-21T19:21:35.390Z,16.85
2024-02-21T19:24:03.234Z,11.52
2024-02-21T19:26:31.124Z,11.75
2024-02-21T19:28:59.058Z,13.07
2024-02-21T19:31:26.960Z,11.95
2024-02-21T19:33:55.459Z,12.63
2024-02-21T19:36:23.889Z,14.32
2024-02-21T19:38:53.103Z,11.70
2024-02-21T19:41:20.992Z,10.90
2024-02-21T19:43:49.007Z,11.80
2024-02-21T19:46:16.966Z,24.83
2024-02-21T19:48:44.955Z,14.77
2024-02-21T19:51:12.969Z,13.85
2024-02-21T19:53:40.802Z,12.05
2024-02-21T19:56:15.140Z,12.93
2024-02-21T19:58:43.144Z,12.75
2024-02-21T20:01:11.022Z,15.55
2024-02-21T20:03:39.404Z,14.27
2024-02-21T20:06:09.359Z,16.55
2024-02-21T20:08:37.498Z,18.80
2024-02-21T20:11:06.929Z,12.85
2024-02-21T20:13:37.471Z,14.35
2024-02-21T20:16:05.931Z,16.70
2024-02-21T20:18:34.446Z,9.88
2024-02-21T20:21:02.352Z,12.38
2024-02-21T20:23:30.224Z,12.50
2024-02-21T20:25:58.130Z,15.35
2024-02-21T20:28:26.022Z,16.60
2024-02-21T20:30:55.253Z,16.38
2024-02-21T20:33:23.915Z,16.25
2024-02-21T20:35:51.815Z,15.93
2024-02-21T20:38:19.708Z,18.85
2024-02-21T20:40:47.537Z,10.80
2024-02-21T20:43:15.576Z,17.10
2024-02-21T20:45:43.899Z,15.55
2024-02-21T20:48:13.145Z,13.38
2024-02-21T20:50:41.271Z,18.20
2024-02-21T20:53:09.398Z,15.48
2024-02-21T20:55:37.324Z,18.02
2024-02-21T20:58:05.529Z,15.15
2024-02-21T21:00:35.146Z,15.25
2024-02-21T21:03:03.249Z,18.35
2024-02-21T21:05:32.609Z,12.27
2024-02-21T21:08:00.682Z,16.83
2024-02-21T21:10:28.816Z,16.48
2024-02-21T21:12:56.715Z,15.55
2024-02-21T21:15:27.283Z,16.92
2024-02-21T21:17:55.182Z,16.65
2024-02-21T21:20:28.147Z,17.38
2024-02-21T21:22:58.215Z,15.15
2024-02-21T21:25:26.198Z,16.98
2024-02-21T21:27:54.205Z,16.95
2024-02-21T21:30:22.136Z,18.75
2024-02-21T21:32:50.306Z,16.23
2024-02-21T21:35:18.185Z,15.77
2024-02-21T21:37:46.171Z,15.50
2024-02-21T21:40:16.949Z,15.48
2024-02-21T21:42:44.863Z,20.70
2024-02-21T21:45:14.410Z,15.60
2024-02-21T21:47:43.948Z,19.67
2024-02-21T21:50:12.284Z,13.27
2024-02-21T21:52:40.593Z,22.50
2024-02-21T21:55:11.161Z,12.98
2024-02-21T21:57:40.886Z,18.90
2024-02-21T22:00:11.155Z,15.45
2024-02-21T22:02:39.116Z,11.57
2024-02-21T22:05:07.975Z,12.73
2024-02-21T22:07:36.018Z,14.55
2024-02-21T22:10:04.108Z,16.48
2024-02-21T22:12:31.928Z,15.38
2024-02-21T22:15:01.158Z,17.58
2024-02-21T22:17:29.206Z,13.80
2024-02-21T22:19:57.128Z,15.05
2024-02-21T22:22:25.069Z,13.05
2024-02-21T22:24:52.938Z,15.20
2024-02-21T22:27:20.743Z,12.90
2024-02-21T22:29:48.599Z,14.15
2024-02-21T22:32:17.805Z,17.48
2024-02-21T22:34:45.832Z,13.00
2024-02-21T22:37:13.728Z,13.00
2024-02-21T22:39:41.536Z,14.07
2024-02-21T22:42:09.886Z,17.75
2024-02-21T22:44:42.781Z,18.98
2024-02-21T22:47:10.811Z,16.00
2024-02-21T22:49:40.063Z,13.75
2024-02-21T22:52:08.316Z,17.00
2024-02-21T22:54:36.390Z,16.13
2024-02-21T22:57:04.302Z,12.85
2024-02-21T22:59:34.101Z,15.43
2024-02-21T23:02:02.290Z,12.75
2024-02-21T23:04:30.377Z,13.15
2024-02-21T23:06:59.669Z,15.35
2024-02-21T23:09:27.504Z,14.13
2024-02-21T23:11:55.554Z,15.30
2024-02-21T23:14:23.433Z,14.77
2024-02-21T23:16:51.299Z,16.35
2024-02-21T23:19:19.246Z,16.17
2024-02-21T23:21:47.197Z,14.45
2024-02-21T23:24:16.425Z,20.20
2024-02-21T23:26:44.253Z,14.33
2024-02-21T23:29:12.169Z,12.52
2024-02-21T23:31:40.699Z,13.27
2024-02-21T23:34:08.821Z,14.50
2024-02-21T23:36:36.904Z,13.20
2024-02-21T23:39:05.403Z,12.05
2024-02-21T23:41:34.615Z,11.05
2024-02-21T23:44:02.762Z,12.07
2024-02-21T23:46:30.847Z,13.07
2024-02-21T23:49:02.486Z,12.60
2024-02-21T23:51:31.780Z,14.18
2024-02-21T23:53:59.935Z,11.55
2024-02-21T23:56:27.801Z,11.65
2024-02-21T23:58:57.079Z,10.85
